createdAt,value
2023-03-16T00:00:27.147Z,55.10
2023-03-16T00:02:56.405Z,55.20
2023-03-16T00:05:26.064Z,55.80
2023-03-16T00:07:55.236Z,55.00
2023-03-16T00:10:27.543Z,55.50
2023-03-16T00:12:57.585Z,56.00
2023-03-16T00:15:26.752Z,56.20
2023-03-16T00:17:55.951Z,56.20
2023-03-16T00:20:25.391Z,56.40
2023-03-16T00:22:54.701Z,56.50
2023-03-16T00:25:24.536Z,56.70
2023-03-16T00:27:53.633Z,56.90
2023-03-16T00:30:23.065Z,56.90
2023-03-16T00:32:54.184Z,56.70
2023-03-16T00:35:23.475Z,57.00
2023-03-16T00:37:52.788Z,57.20
2023-03-16T00:40:22.064Z,57.30
2023-03-16T00:42:51.222Z,57.50
2023-03-16T00:45:20.263Z,57.90
2023-03-16T00:47:49.607Z,58.00
2023-03-16T00:50:22.281Z,57.90
2023-03-16T00:52:54.163Z,58.00
2023-03-16T00:55:23.368Z,57.90
2023-03-16T00:57:52.465Z,58.10
2023-03-16T01:00:22.422Z,58.20
2023-03-16T01:02:51.655Z,58.40
2023-03-16T01:05:21.378Z,58.40
2023-03-16T01:07:52.375Z,58.50
2023-03-16T01:10:21.561Z,58.60
2023-03-16T01:12:50.866Z,59.10
2023-03-16T01:15:20.047Z,58.90
2023-03-16T01:17:49.219Z,59.00
2023-03-16T01:20:19.574Z,59.20
2023-03-16T01:22:48.726Z,59.70
2023-03-16T01:25:18.482Z,60.00
2023-03-16T01:27:48.014Z,59.90
2023-03-16T01:30:17.219Z,60.00
2023-03-16T01:32:47.185Z,60.00
2023-03-16T01:35:16.645Z,60.30
2023-03-16T01:37:45.744Z,60.40
2023-03-16T01:40:22.171Z,60.60
2023-03-16T01:43:01.730Z,60.80
2023-03-16T01:46:04.525Z,60.80
2023-03-16T01:49:21.157Z,60.90
2023-03-16T01:52:01.013Z,61.10
2023-03-16T01:54:40.192Z,61.40
2023-03-16T01:57:13.805Z,61.50
2023-03-16T01:59:58.056Z,61.50
2023-03-16T02:02:31.019Z,61.50
2023-03-16T02:05:19.797Z,61.60
2023-03-16T02:07:52.458Z,61.80
2023-03-16T02:10:21.658Z,62.00
2023-03-16T02:12:51.110Z,62.10
2023-03-16T02:15:20.514Z,62.20
2023-03-16T02:17:50.669Z,62.40
2023-03-16T02:20:24.759Z,62.40
2023-03-16T02:22:55.160Z,62.60
2023-03-16T02:25:30.326Z,62.70
2023-03-16T02:28:37.053Z,62.50
2023-03-16T02:31:07.210Z,62.50
2023-03-16T02:33:36.862Z,62.50
2023-03-16T02:36:07.071Z,62.60
2023-03-16T02:38:36.311Z,62.80
2023-03-16T02:41:15.472Z,62.90
2023-03-16T02:44:10.870Z,63.20
2023-03-16T02:46:43.626Z,63.30
2023-03-16T02:49:19.959Z,63.50
2023-03-16T02:51:51.701Z,63.50
2023-03-16T02:54:21.379Z,63.60
2023-03-16T02:56:51.504Z,63.80
2023-03-16T02:59:20.894Z,63.80
2023-03-16T03:01:51.517Z,63.90
2023-03-16T03:04:24.661Z,64.70
2023-03-16T03:06:53.884Z,64.60
2023-03-16T03:09:22.959Z,64.70
2023-03-16T03:11:55.685Z,64.70
2023-03-16T03:14:25.397Z,64.90
2023-03-16T03:16:54.894Z,64.70
2023-03-16T03:19:24.141Z,64.90
2023-03-16T03:21:57.013Z,64.90
2023-03-16T03:24:28.130Z,65.00
2023-03-16T03:26:58.528Z,65.00
2023-03-16T03:29:34.719Z,64.70
2023-03-16T03:32:04.939Z,64.70
2023-03-16T03:34:34.270Z,64.80
2023-03-16T03:37:03.405Z,65.10
2023-03-16T03:39:32.507Z,65.40
2023-03-16T03:42:03.552Z,65.50
2023-03-16T03:44:36.910Z,65.60
2023-03-16T03:47:06.452Z,65.60
2023-03-16T03:49:35.593Z,65.60
2023-03-16T03:52:05.168Z,65.60
2023-03-16T03:54:34.545Z,65.80
2023-03-16T03:57:15.280Z,65.90
2023-03-16T03:59:44.540Z,66.00
2023-03-16T04:02:41.948Z,65.90
2023-03-16T04:05:19.855Z,65.70
2023-03-16T04:07:55.121Z,66.10
2023-03-16T04:10:29.261Z,66.40
2023-03-16T04:12:59.695Z,66.50
2023-03-16T04:15:32.985Z,66.60
2023-03-16T04:18:13.643Z,67.10
2023-03-16T04:20:43.956Z,67.10
2023-03-16T04:23:17.312Z,67.20
2023-03-16T04:25:48.596Z,66.90
2023-03-16T04:28:20.195Z,66.80
2023-03-16T04:30:56.918Z,67.00
2023-03-16T04:33:36.552Z,67.20
2023-03-16T04:36:07.175Z,67.20
2023-03-16T04:38:39.067Z,67.10
2023-03-16T04:41:08.280Z,67.60
2023-03-16T04:43:43.261Z,67.70
2023-03-16T04:46:19.902Z,67.60
2023-03-16T04:48:49.031Z,67.60
2023-03-16T04:51:18.289Z,67.90
2023-03-16T04:53:58.760Z,68.20
2023-03-16T04:56:34.895Z,67.80
2023-03-16T04:59:08.456Z,67.60
2023-03-16T05:01:48.574Z,67.70
2023-03-16T05:04:19.773Z,67.80
2023-03-16T05:06:50.540Z,67.80
2023-03-16T05:09:24.033Z,67.70
2023-03-16T05:11:53.162Z,67.60
2023-03-16T05:14:22.299Z,67.60
2023-03-16T05:17:03.904Z,67.50
2023-03-16T05:19:34.019Z,67.50
2023-03-16T05:22:03.380Z,67.40
2023-03-16T05:24:33.020Z,67.10
2023-03-16T05:28:18.873Z,67.00
2023-03-16T05:30:56.967Z,66.50
2023-03-16T05:33:29.545Z,66.40
2023-03-16T05:36:05.374Z,66.10
2023-03-16T05:38:39.209Z,65.90
2023-03-16T05:41:11.830Z,65.70
2023-03-16T05:44:04.724Z,65.50
2023-03-16T05:46:48.173Z,65.40
2023-03-16T05:49:17.902Z,65.20
2023-03-16T05:51:47.312Z,65.00
2023-03-16T05:54:16.624Z,64.80
2023-03-16T05:56:47.893Z,64.30
2023-03-16T05:59:18.359Z,64.00
2023-03-16T06:01:53.138Z,63.90
2023-03-16T06:04:23.551Z,63.90
2023-03-16T06:06:53.087Z,63.60
2023-03-16T06:09:24.820Z,63.40
2023-03-16T06:11:54.054Z,63.20
2023-03-16T06:14:24.024Z,63.10
2023-03-16T06:16:54.963Z,63.00
2023-03-16T06:19:24.551Z,62.60
2023-03-16T06:21:59.235Z,62.50
2023-03-16T06:24:28.387Z,62.30
2023-03-16T06:26:57.628Z,61.80
2023-03-16T06:29:33.437Z,60.90
2023-03-16T06:32:03.501Z,60.40
2023-03-16T06:34:35.072Z,60.10
2023-03-16T06:37:05.357Z,59.80
2023-03-16T06:39:34.956Z,59.30
2023-03-16T06:42:04.998Z,58.80
2023-03-16T06:44:34.598Z,58.50
2023-03-16T06:47:10.990Z,58.30
2023-03-16T06:49:40.690Z,58.20
2023-03-16T06:52:17.478Z,58.00
2023-03-16T06:54:46.601Z,57.50
2023-03-16T06:57:17.440Z,57.30
2023-03-16T06:59:46.603Z,56.40
2023-03-16T07:02:17.136Z,55.20
2023-03-16T07:04:46.576Z,53.60
2023-03-16T07:07:17.200Z,52.80
2023-03-16T07:09:46.393Z,52.30
2023-03-16T07:12:15.546Z,51.80
2023-03-16T07:14:44.594Z,51.20
2023-03-16T07:17:16.076Z,50.60
2023-03-16T07:19:45.230Z,49.90
2023-03-16T07:22:15.963Z,49.10
2023-03-16T07:24:45.348Z,48.60
2023-03-16T07:27:14.795Z,47.90
2023-03-16T07:29:45.733Z,48.20
2023-03-16T07:32:14.981Z,47.30
2023-03-16T07:34:44.185Z,46.80
2023-03-16T07:37:14.079Z,46.30
2023-03-16T07:39:43.816Z,46.30
2023-03-16T07:42:19.914Z,46.00
2023-03-16T07:45:08.144Z,46.00
2023-03-16T07:47:37.661Z,45.50
2023-03-16T07:50:17.047Z,45.50
2023-03-16T07:52:48.409Z,45.30
2023-03-16T07:55:18.316Z,44.60
2023-03-16T07:57:48.407Z,44.40
2023-03-16T08:00:24.004Z,44.00
2023-03-16T08:02:54.043Z,43.50
2023-03-16T08:05:24.064Z,43.40
2023-03-16T08:08:01.794Z,43.20
2023-03-16T08:10:32.359Z,42.70
2023-03-16T08:13:15.197Z,42.60
2023-03-16T08:15:48.029Z,42.20
2023-03-16T08:18:26.760Z,41.80
2023-03-16T08:20:57.662Z,41.70
2023-03-16T08:23:29.422Z,41.60
2023-03-16T08:25:58.688Z,41.40
2023-03-16T08:28:29.825Z,41.40
2023-03-16T08:31:00.274Z,40.90
2023-03-16T08:33:43.334Z,40.60
2023-03-16T08:36:15.570Z,40.30
2023-03-16T08:39:03.856Z,40.20
2023-03-16T08:41:38.243Z,40.00
2023-03-16T08:44:13.029Z,39.90
2023-03-16T08:46:42.588Z,39.60
2023-03-16T08:49:13.692Z,39.40
2023-03-16T08:51:44.920Z,39.20
2023-03-16T08:54:15.703Z,39.10
2023-03-16T08:56:44.804Z,39.10
2023-03-16T08:59:27.003Z,39.00
2023-03-16T09:01:56.575Z,38.90
2023-03-16T09:04:25.895Z,39.00
2023-03-16T09:07:07.853Z,38.50
2023-03-16T09:09:37.951Z,38.50
2023-03-16T09:12:07.448Z,38.50
2023-03-16T09:14:38.665Z,38.30
2023-03-16T09:17:08.115Z,38.30
2023-03-16T09:19:50.394Z,38.20
2023-03-16T09:22:20.894Z,38.20
2023-03-16T09:24:50.276Z,38.00
2023-03-16T09:27:20.791Z,38.10
2023-03-16T09:29:51.002Z,37.90
2023-03-16T09:32:20.205Z,37.90
2023-03-16T09:34:49.320Z,37.80
2023-03-16T09:37:18.465Z,37.70
2023-03-16T09:39:48.798Z,37.70
2023-03-16T09:42:27.354Z,37.60
2023-03-16T09:45:18.899Z,37.40
2023-03-16T09:47:52.121Z,38.10
2023-03-16T09:50:38.222Z,37.40
2023-03-16T09:53:30.876Z,37.10
2023-03-16T09:56:04.920Z,37.10
2023-03-16T09:58:34.663Z,37.10
2023-03-16T10:01:41.411Z,37.00
2023-03-16T10:04:32.403Z,36.80
2023-03-16T10:07:15.633Z,36.70
2023-03-16T10:10:18.479Z,36.60
2023-03-16T10:12:51.519Z,36.50
2023-03-16T10:15:27.177Z,36.40
2023-03-16T10:18:06.600Z,36.10
2023-03-16T10:20:36.684Z,36.10
2023-03-16T10:23:23.005Z,36.10
2023-03-16T10:25:54.306Z,36.00
2023-03-16T10:28:27.767Z,35.90
2023-03-16T10:31:00.290Z,36.00
2023-03-16T10:33:33.647Z,35.90
2023-03-16T10:36:19.473Z,35.90
2023-03-16T10:38:55.440Z,35.80
2023-03-16T10:41:30.713Z,35.70
2023-03-16T10:44:07.597Z,35.70
2023-03-16T10:46:43.131Z,35.70
2023-03-16T10:49:27.187Z,35.70
2023-03-16T10:51:59.614Z,35.70
2023-03-16T10:54:33.587Z,35.80
2023-03-16T10:57:16.834Z,35.70
2023-03-16T10:59:50.024Z,35.60
2023-03-16T11:02:23.627Z,35.50
2023-03-16T11:04:54.463Z,35.50
2023-03-16T11:07:25.151Z,35.50
2023-03-16T11:09:58.773Z,35.50
2023-03-16T11:12:31.342Z,35.50
2023-03-16T11:15:09.400Z,35.60
2023-03-16T11:17:51.521Z,35.50
2023-03-16T11:20:32.729Z,35.10
2023-03-16T11:23:02.656Z,35.10
2023-03-16T11:25:43.128Z,35.10
2023-03-16T11:28:17.839Z,35.20
2023-03-16T11:31:10.248Z,35.10
2023-03-16T11:33:40.283Z,35.10
2023-03-16T11:36:12.096Z,35.00
2023-03-16T11:38:46.324Z,34.80
2023-03-16T11:41:56.520Z,34.70
2023-03-16T11:44:37.704Z,34.80
2023-03-16T11:47:34.824Z,34.60
2023-03-16T11:50:10.103Z,34.40
2023-03-16T11:52:57.534Z,34.50
2023-03-16T11:55:32.802Z,34.40
2023-03-16T11:58:20.560Z,34.10
2023-03-16T12:01:00.575Z,34.10
2023-03-16T12:03:50.264Z,34.10
2023-03-16T12:06:23.330Z,33.90
2023-03-16T12:09:23.585Z,33.80
2023-03-16T12:12:11.572Z,33.60
2023-03-16T12:14:46.650Z,33.70
2023-03-16T12:17:21.681Z,33.60
2023-03-16T12:19:59.905Z,33.60
2023-03-16T12:22:29.104Z,33.50
2023-03-16T12:24:58.241Z,33.50
2023-03-16T12:27:33.435Z,33.40
2023-03-16T12:30:14.760Z,33.20
2023-03-16T12:32:53.574Z,33.20
2023-03-16T12:35:35.907Z,33.10
2023-03-16T12:38:29.933Z,32.90
2023-03-16T12:41:08.304Z,32.80
2023-03-16T12:43:46.620Z,32.60
2023-03-16T12:46:33.766Z,32.40
2023-03-16T12:49:06.468Z,32.00
2023-03-16T12:51:41.461Z,31.80
2023-03-16T12:54:25.375Z,31.60
2023-03-16T12:57:02.519Z,31.40
2023-03-16T12:59:43.086Z,31.30
2023-03-16T13:02:26.459Z,31.40
2023-03-16T13:05:02.754Z,31.30
2023-03-16T13:07:32.567Z,31.30
2023-03-16T13:10:08.252Z,31.10
2023-03-16T13:12:39.021Z,31.10
2023-03-16T13:15:21.324Z,31.20
2023-03-16T13:18:04.511Z,31.20
2023-03-16T13:20:36.297Z,31.20
2023-03-16T13:23:08.336Z,31.10
2023-03-16T13:25:43.231Z,31.10
2023-03-16T13:28:17.645Z,31.00
2023-03-16T13:30:48.701Z,31.00
2023-03-16T13:33:27.290Z,30.80
2023-03-16T13:35:59.141Z,30.00
2023-03-16T13:38:28.804Z,26.60
2023-03-16T13:41:04.013Z,24.10
2023-03-16T13:43:35.856Z,22.90
2023-03-16T13:46:17.181Z,22.20
2023-03-16T13:48:49.600Z,21.40
2023-03-16T13:51:22.787Z,20.60
2023-03-16T13:53:53.655Z,20.10
2023-03-16T13:56:27.117Z,19.70
2023-03-16T13:58:58.652Z,19.40
2023-03-16T14:01:30.698Z,19.20
2023-03-16T14:04:08.542Z,18.90
2023-03-16T14:06:38.646Z,19.00
2023-03-16T14:09:17.318Z,20.60
2023-03-16T14:11:48.661Z,22.60
2023-03-16T14:14:39.737Z,24.40
2023-03-16T14:17:12.764Z,25.40
2023-03-16T14:19:47.377Z,25.80
2023-03-16T14:22:24.109Z,26.20
2023-03-16T14:24:59.121Z,26.40
2023-03-16T14:27:42.639Z,26.40
2023-03-16T14:30:17.168Z,26.40
2023-03-16T14:33:06.830Z,26.60
2023-03-16T14:35:44.538Z,26.50
2023-03-16T14:38:36.964Z,26.50
2023-03-16T14:41:12.017Z,26.50
2023-03-16T14:43:49.776Z,26.60
2023-03-16T14:46:28.626Z,26.50
2023-03-16T14:49:07.980Z,26.50
2023-03-16T14:51:39.792Z,26.50
2023-03-16T14:54:14.031Z,26.50
2023-03-16T14:56:47.625Z,26.70
2023-03-16T14:59:16.887Z,26.80
2023-03-16T15:01:47.279Z,26.90
2023-03-16T15:04:20.725Z,27.00
2023-03-16T15:06:50.043Z,27.00
2023-03-16T15:09:30.003Z,27.10
2023-03-16T15:11:59.081Z,27.20
2023-03-16T15:14:46.986Z,27.30
2023-03-16T15:17:16.597Z,27.50
2023-03-16T15:19:45.796Z,27.70
2023-03-16T15:22:14.963Z,27.80
2023-03-16T15:24:44.143Z,27.90
2023-03-16T15:27:31.499Z,28.10
2023-03-16T15:30:00.973Z,28.20
2023-03-16T15:32:30.303Z,28.30
2023-03-16T15:34:59.566Z,28.60
2023-03-16T15:37:30.258Z,28.90
2023-03-16T15:39:59.345Z,29.10
2023-03-16T15:42:28.513Z,29.40
2023-03-16T15:44:57.644Z,29.60
2023-03-16T15:47:26.729Z,29.80
2023-03-16T15:49:55.955Z,30.00
2023-03-16T15:52:32.065Z,30.40
2023-03-16T15:55:04.653Z,30.60
2023-03-16T15:57:35.732Z,30.90
2023-03-16T16:00:05.602Z,31.10
2023-03-16T16:02:34.800Z,31.50
2023-03-16T16:05:04.518Z,31.80
2023-03-16T16:07:33.682Z,32.00
2023-03-16T16:10:03.082Z,32.10
2023-03-16T16:12:32.557Z,32.30
2023-03-16T16:15:01.809Z,32.60
2023-03-16T16:17:46.045Z,32.80
2023-03-16T16:20:26.313Z,32.90
2023-03-16T16:23:00.034Z,33.20
2023-03-16T16:25:38.087Z,33.50
2023-03-16T16:28:19.884Z,33.70
2023-03-16T16:30:49.414Z,34.00
2023-03-16T16:33:30.019Z,34.30
2023-03-16T16:36:11.236Z,34.50
2023-03-16T16:38:40.492Z,34.70
2023-03-16T16:41:10.421Z,34.80
2023-03-16T16:43:47.338Z,35.00
2023-03-16T16:46:20.164Z,35.10
2023-03-16T16:48:57.739Z,35.30
2023-03-16T16:51:28.936Z,35.50
2023-03-16T16:53:59.789Z,35.70
2023-03-16T16:56:35.797Z,36.10
2023-03-16T16:59:19.789Z,36.50
2023-03-16T17:01:57.497Z,36.70
2023-03-16T17:04:28.889Z,36.90
2023-03-16T17:07:00.852Z,37.20
2023-03-16T17:09:30.362Z,37.30
2023-03-16T17:12:01.281Z,37.40
2023-03-16T17:14:31.536Z,37.50
2023-03-16T17:17:02.728Z,37.50
2023-03-16T17:19:32.861Z,37.50
2023-03-16T17:22:02.356Z,37.50
2023-03-16T17:24:32.086Z,37.60
2023-03-16T17:27:04.557Z,37.80
2023-03-16T17:29:34.445Z,37.90
2023-03-16T17:32:12.465Z,38.00
2023-03-16T17:34:41.770Z,38.10
2023-03-16T17:37:18.024Z,38.20
2023-03-16T17:39:47.166Z,38.50
2023-03-16T17:42:18.545Z,38.60
2023-03-16T17:44:50.844Z,38.90
2023-03-16T17:47:25.285Z,39.20
2023-03-16T17:49:54.545Z,39.10
2023-03-16T17:52:25.913Z,39.10
2023-03-16T17:54:55.340Z,39.10
2023-03-16T17:57:33.345Z,39.10
2023-03-16T18:00:08.919Z,39.20
2023-03-16T18:02:50.240Z,39.30
2023-03-16T18:05:25.433Z,39.40
2023-03-16T18:07:58.208Z,39.60
2023-03-16T18:10:33.049Z,39.80
2023-03-16T18:13:06.751Z,40.00
2023-03-16T18:15:38.724Z,40.10
2023-03-16T18:20:40.644Z,39.90
2023-03-16T18:23:24.421Z,40.70
2023-03-16T18:25:56.383Z,41.20
2023-03-16T18:28:25.485Z,41.60
2023-03-16T18:30:55.256Z,42.00
2023-03-16T18:33:30.320Z,42.20
2023-03-16T18:36:05.513Z,42.30
2023-03-16T18:38:37.450Z,42.60
2023-03-16T18:41:19.636Z,42.60
2023-03-16T18:43:50.218Z,42.70
2023-03-16T18:46:31.608Z,42.90
2023-03-16T18:49:31.439Z,43.10
2023-03-16T18:52:01.081Z,43.30
2023-03-16T18:54:35.426Z,44.20
2023-03-16T18:57:15.529Z,44.80
2023-03-16T18:59:45.299Z,45.30
2023-03-16T19:02:39.030Z,45.50
2023-03-16T19:05:15.547Z,45.70
2023-03-16T19:07:47.233Z,46.30
2023-03-16T19:10:31.741Z,46.70
2023-03-16T19:13:01.382Z,47.00
2023-03-16T19:15:33.954Z,47.10
2023-03-16T19:18:03.220Z,47.20
2023-03-16T19:20:34.294Z,47.30
2023-03-16T19:23:15.688Z,47.50
2023-03-16T19:25:46.173Z,47.80
2023-03-16T19:28:28.218Z,47.70
2023-03-16T19:30:57.559Z,48.00
2023-03-16T19:33:28.546Z,48.00
2023-03-16T19:35:58.335Z,48.10
2023-03-16T19:38:28.408Z,48.10
2023-03-16T19:40:59.791Z,48.10
2023-03-16T19:43:29.067Z,48.20
2023-03-16T19:45:58.346Z,48.40
2023-03-16T19:48:34.320Z,49.00
2023-03-16T19:51:04.450Z,49.40
2023-03-16T19:53:33.536Z,49.70
2023-03-16T19:56:02.741Z,49.70
2023-03-16T19:58:40.295Z,50.00
2023-03-16T20:01:22.075Z,50.00
2023-03-16T20:03:53.016Z,50.10
2023-03-16T20:06:23.904Z,50.30
2023-03-16T20:08:53.085Z,50.50
2023-03-16T20:11:28.944Z,50.60
2023-03-16T20:13:59.309Z,50.60
2023-03-16T20:16:31.060Z,50.80
2023-03-16T20:19:03.208Z,50.90
2023-03-16T20:21:32.692Z,51.10
2023-03-16T20:24:02.296Z,51.30
2023-03-16T20:26:32.959Z,51.40
2023-03-16T20:29:02.300Z,51.40
2023-03-16T20:31:34.442Z,51.50
2023-03-16T20:34:03.614Z,51.90
2023-03-16T20:36:32.888Z,51.70
2023-03-16T20:39:02.106Z,51.80
2023-03-16T20:41:32.794Z,52.00
2023-03-16T20:44:03.275Z,52.10
2023-03-16T20:46:33.515Z,52.00
2023-03-16T20:49:03.587Z,52.10
2023-03-16T20:51:32.774Z,52.20
2023-03-16T20:54:01.864Z,52.40
2023-03-16T20:56:31.485Z,52.70
2023-03-16T20:59:00.775Z,53.00
2023-03-16T21:01:30.398Z,53.10
2023-03-16T21:04:00.345Z,53.20
2023-03-16T21:06:31.829Z,53.40
2023-03-16T21:09:03.165Z,53.40
2023-03-16T21:11:36.738Z,53.50
2023-03-16T21:14:08.119Z,53.60
2023-03-16T21:16:38.749Z,53.90
2023-03-16T21:19:15.158Z,54.00
2023-03-16T21:21:44.529Z,54.20
2023-03-16T21:24:13.670Z,54.30
2023-03-16T21:26:44.695Z,54.40
2023-03-16T21:29:21.879Z,54.60
2023-03-16T21:31:51.880Z,54.80
2023-03-16T21:34:26.479Z,54.90
2023-03-16T21:36:55.647Z,55.00
2023-03-16T21:39:25.421Z,55.20
2023-03-16T21:41:54.772Z,55.30
2023-03-16T21:44:23.939Z,55.50
2023-03-16T21:46:53.156Z,55.60
2023-03-16T21:49:22.326Z,55.80
2023-03-16T21:51:51.995Z,56.00
2023-03-16T21:54:21.215Z,56.20
2023-03-16T21:56:50.412Z,56.30
2023-03-16T21:59:19.582Z,56.60
2023-03-16T22:02:01.049Z,56.80
2023-03-16T22:04:31.686Z,57.10
2023-03-16T22:07:00.878Z,57.20
2023-03-16T22:09:32.869Z,57.30
2023-03-16T22:12:02.042Z,57.40
2023-03-16T22:14:31.166Z,57.50
2023-03-16T22:17:00.474Z,57.50
2023-03-16T22:19:29.809Z,57.40
2023-03-16T22:21:59.537Z,57.40
2023-03-16T22:24:30.952Z,57.40
2023-03-16T22:27:00.119Z,57.40
2023-03-16T22:29:31.757Z,57.50
2023-03-16T22:32:07.725Z,57.70
2023-03-16T22:34:44.356Z,58.00
2023-03-16T22:37:18.192Z,58.10
2023-03-16T22:39:47.572Z,58.10
2023-03-16T22:42:19.694Z,58.20
2023-03-16T22:44:48.818Z,58.40
2023-03-16T22:47:26.492Z,58.50
2023-03-16T22:49:56.073Z,58.50
2023-03-16T22:52:31.049Z,58.80
2023-03-16T22:55:01.751Z,58.90
2023-03-16T22:57:32.704Z,58.90
2023-03-16T23:00:11.354Z,59.00
2023-03-16T23:02:40.950Z,59.10
2023-03-16T23:05:29.829Z,59.20
2023-03-16T23:08:02.541Z,59.30
2023-03-16T23:10:31.751Z,59.50
2023-03-16T23:13:04.087Z,59.60
2023-03-16T23:15:42.126Z,59.80
2023-03-16T23:18:20.578Z,60.10
2023-03-16T23:20:50.878Z,60.20
2023-03-16T23:23:20.305Z,60.40
2023-03-16T23:25:49.536Z,60.60
2023-03-16T23:28:24.595Z,60.70
2023-03-16T23:30:53.834Z,61.00
2023-03-16T23:33:23.167Z,61.00
2023-03-16T23:35:52.270Z,61.00
2023-03-16T23:38:21.857Z,61.00
2023-03-16T23:40:51.096Z,61.00
2023-03-16T23:43:20.280Z,61.00
2023-03-16T23:45:49.504Z,60.90
2023-03-16T23:48:21.388Z,61.10
2023-03-16T23:50:54.382Z,61.20
2023-03-16T23:53:25.606Z,61.20
2023-03-16T23:55:54.770Z,61.20
2023-03-16T23:58:24.199Z,61.30
